Ana Sayfa
METAR-TAF:

METAR-TAF

Havaalanları :

Aransas County Airport

Rockport, Teksas, Amerika Birleşik Devletleri

Enlem: 28-05-01N, Boylam: 097-02-47W, yükseklik: 7 m

Güncel hava durumu gözlemi

Rapor saat 07:53 UTC de 33 dakika önce yapıldı.
Rüzgar güneybatıdan 6 kt
Sıcaklık 16°C
Nem 77%
Basınç 1011 hPa
Görüş mesafesi: 14.5 km
Açık gökyüzü

METAR: KRKP 140753Z AUTO 22006KT 9SM CLR 16/12 A2986 RMK AO2 SLP112 T01560117

Saat: 02:26 (08:26 UTC)


TAF: eksik

4.000'den fazla havaalanı için hava durumu gözlemleri ve tahminleri (METAR ve TAF raporları).

Kullanılabilir istasyonlar harita üzerinde sarı ve kırmızı noktalarla gösterilir.

İstasyonun adını görmek için fareyi noktanın üzerinde gezdirin.

Sonrasında hava gözlem ve tahminlerini görmek için tıklayın.

Haritayı değiştirmek için: yaklaştırmak için siyah artı işaretli yeşil düğmeye ve uzaklaştırmak için de eksi işaretli düğmeye hızla tıklayın; bitişik haritalar için yeşil okları kullanın.


METAR-TAF: